sensor_id;sensor_type;location;lat;lon;timestamp;temperature;humidity
48994;DHT22;34804;49.214;12.276;2022-12-07T00:01:46;2.30;92.80
48994;DHT22;34804;49.214;12.276;2022-12-07T00:04:15;2.40;92.80
48994;DHT22;34804;49.214;12.276;2022-12-07T00:06:44;2.40;92.60
48994;DHT22;34804;49.214;12.276;2022-12-07T00:09:16;2.40;92.60
48994;DHT22;34804;49.214;12.276;2022-12-07T00:11:44;2.40;92.70
48994;DHT22;34804;49.214;12.276;2022-12-07T00:14:13;2.40;92.80
48994;DHT22;34804;49.214;12.276;2022-12-07T00:16:41;2.30;92.70
48994;DHT22;34804;49.214;12.276;2022-12-07T00:19:09;2.40;92.50
48994;DHT22;34804;49.214;12.276;2022-12-07T00:21:36;2.40;92.60
48994;DHT22;34804;49.214;12.276;2022-12-07T00:24:04;2.40;92.50
48994;DHT22;34804;49.214;12.276;2022-12-07T00:26:34;2.40;92.70
48994;DHT22;34804;49.214;12.276;2022-12-07T00:29:07;2.40;92.80
48994;DHT22;34804;49.214;12.276;2022-12-07T00:31:36;2.40;92.90
48994;DHT22;34804;49.214;12.276;2022-12-07T00:34:14;2.40;92.70
48994;DHT22;34804;49.214;12.276;2022-12-07T00:36:41;2.40;93.00
48994;DHT22;34804;49.214;12.276;2022-12-07T00:39:08;2.40;93.00
48994;DHT22;34804;49.214;12.276;2022-12-07T00:41:35;2.40;93.00
48994;DHT22;34804;49.214;12.276;2022-12-07T00:44:01;2.40;93.10
48994;DHT22;34804;49.214;12.276;2022-12-07T00:46:29;2.40;93.20
48994;DHT22;34804;49.214;12.276;2022-12-07T00:48:57;2.40;93.20
48994;DHT22;34804;49.214;12.276;2022-12-07T00:51:24;2.40;93.20
48994;DHT22;34804;49.214;12.276;2022-12-07T00:53:52;2.30;93.10
48994;DHT22;34804;49.214;12.276;2022-12-07T00:56:21;2.40;93.20
48994;DHT22;34804;49.214;12.276;2022-12-07T01:01:23;2.30;93.00
48994;DHT22;34804;49.214;12.276;2022-12-07T01:03:50;2.30;93.00
48994;DHT22;34804;49.214;12.276;2022-12-07T01:06:18;2.30;93.10
48994;DHT22;34804;49.214;12.276;2022-12-07T01:08:45;2.30;93.20
48994;DHT22;34804;49.214;12.276;2022-12-07T01:11:15;2.20;93.20
48994;DHT22;34804;49.214;12.276;2022-12-07T01:13:43;2.20;93.20
48994;DHT22;34804;49.214;12.276;2022-12-07T01:16:13;2.20;93.20
48994;DHT22;34804;49.214;12.276;2022-12-07T01:18:40;2.20;93.20
48994;DHT22;34804;49.214;12.276;2022-12-07T01:21:09;2.20;93.30
48994;DHT22;34804;49.214;12.276;2022-12-07T01:23:37;2.20;93.20
48994;DHT22;34804;49.214;12.276;2022-12-07T01:26:06;2.20;93.10
48994;DHT22;34804;49.214;12.276;2022-12-07T01:28:33;2.20;93.10
48994;DHT22;34804;49.214;12.276;2022-12-07T01:31:03;2.20;93.00
48994;DHT22;34804;49.214;12.276;2022-12-07T01:33:33;2.10;92.90
48994;DHT22;34804;49.214;12.276;2022-12-07T01:36:18;2.20;92.90
48994;DHT22;34804;49.214;12.276;2022-12-07T01:38:49;2.10;92.50
48994;DHT22;34804;49.214;12.276;2022-12-07T01:41:19;2.10;92.50
48994;DHT22;34804;49.214;12.276;2022-12-07T01:44:19;2.10;92.30
48994;DHT22;34804;49.214;12.276;2022-12-07T01:49:42;2.20;91.80
48994;DHT22;34804;49.214;12.276;2022-12-07T01:52:23;2.20;92.00
48994;DHT22;34804;49.214;12.276;2022-12-07T01:54:58;2.10;91.90
48994;DHT22;34804;49.214;12.276;2022-12-07T01:57:26;2.10;91.80
48994;DHT22;34804;49.214;12.276;2022-12-07T01:59:55;2.10;91.80
48994;DHT22;34804;49.214;12.276;2022-12-07T02:02:26;2.10;91.80
48994;DHT22;34804;49.214;12.276;2022-12-07T02:04:55;2.20;91.90
48994;DHT22;34804;49.214;12.276;2022-12-07T02:07:23;2.20;92.00
48994;DHT22;34804;49.214;12.276;2022-12-07T02:09:51;2.30;91.70
48994;DHT22;34804;49.214;12.276;2022-12-07T02:12:18;2.30;91.40
48994;DHT22;34804;49.214;12.276;2022-12-07T02:14:45;2.30;91.60
48994;DHT22;34804;49.214;12.276;2022-12-07T02:17:24;2.30;91.40
48994;DHT22;34804;49.214;12.276;2022-12-07T02:28:31;2.30;91.00
48994;DHT22;34804;49.214;12.276;2022-12-07T02:31:12;2.30;90.70
48994;DHT22;34804;49.214;12.276;2022-12-07T02:33:45;2.40;90.90
48994;DHT22;34804;49.214;12.276;2022-12-07T02:36:17;2.40;91.10
48994;DHT22;34804;49.214;12.276;2022-12-07T02:38:48;2.40;90.80
48994;DHT22;34804;49.214;12.276;2022-12-07T02:44:00;2.40;90.50
48994;DHT22;34804;49.214;12.276;2022-12-07T02:46:43;2.40;90.60
48994;DHT22;34804;49.214;12.276;2022-12-07T02:49:11;2.30;90.40
48994;DHT22;34804;49.214;12.276;2022-12-07T02:51:43;2.30;90.80
48994;DHT22;34804;49.214;12.276;2022-12-07T02:54:17;2.30;90.60
48994;DHT22;34804;49.214;12.276;2022-12-07T03:05:36;2.20;91.40
48994;DHT22;34804;49.214;12.276;2022-12-07T03:11:01;2.20;90.70
48994;DHT22;34804;49.214;12.276;2022-12-07T03:13:54;2.30;90.90
48994;DHT22;34804;49.214;12.276;2022-12-07T03:16:27;2.30;90.60
48994;DHT22;34804;49.214;12.276;2022-12-07T03:19:01;2.20;91.00
48994;DHT22;34804;49.214;12.276;2022-12-07T03:21:33;2.20;91.00
48994;DHT22;34804;49.214;12.276;2022-12-07T03:24:09;2.20;91.10
48994;DHT22;34804;49.214;12.276;2022-12-07T03:26:40;2.20;91.20
48994;DHT22;34804;49.214;12.276;2022-12-07T03:29:13;2.20;91.30
48994;DHT22;34804;49.214;12.276;2022-12-07T03:31:48;2.10;91.00
48994;DHT22;34804;49.214;12.276;2022-12-07T03:34:21;2.20;90.30
48994;DHT22;34804;49.214;12.276;2022-12-07T03:36:59;2.20;90.10
48994;DHT22;34804;49.214;12.276;2022-12-07T03:39:38;2.30;90.30
48994;DHT22;34804;49.214;12.276;2022-12-07T03:42:07;2.30;90.20
48994;DHT22;34804;49.214;12.276;2022-12-07T03:44:35;2.20;90.00
48994;DHT22;34804;49.214;12.276;2022-12-07T03:49:55;2.20;90.10
48994;DHT22;34804;49.214;12.276;2022-12-07T03:55:28;2.10;90.00
48994;DHT22;34804;49.214;12.276;2022-12-07T03:58:00;2.10;90.20
48994;DHT22;34804;49.214;12.276;2022-12-07T04:00:28;2.20;90.00
48994;DHT22;34804;49.214;12.276;2022-12-07T04:02:55;2.20;90.30
48994;DHT22;34804;49.214;12.276;2022-12-07T04:05:23;2.10;90.10
48994;DHT22;34804;49.214;12.276;2022-12-07T04:07:50;2.10;90.40
48994;DHT22;34804;49.214;12.276;2022-12-07T04:10:17;2.10;90.40
48994;DHT22;34804;49.214;12.276;2022-12-07T04:12:44;2.10;90.30
48994;DHT22;34804;49.214;12.276;2022-12-07T04:15:11;2.10;90.30
48994;DHT22;34804;49.214;12.276;2022-12-07T04:17:38;2.00;90.40
48994;DHT22;34804;49.214;12.276;2022-12-07T04:20:05;2.10;90.50
48994;DHT22;34804;49.214;12.276;2022-12-07T04:22:32;2.10;89.70
48994;DHT22;34804;49.214;12.276;2022-12-07T04:24:59;2.10;90.00
48994;DHT22;34804;49.214;12.276;2022-12-07T04:27:26;2.10;89.60
48994;DHT22;34804;49.214;12.276;2022-12-07T04:29:53;2.10;89.70
48994;DHT22;34804;49.214;12.276;2022-12-07T04:32:20;2.00;89.80
48994;DHT22;34804;49.214;12.276;2022-12-07T04:34:46;2.00;89.90
48994;DHT22;34804;49.214;12.276;2022-12-07T04:37:20;2.00;89.70
48994;DHT22;34804;49.214;12.276;2022-12-07T04:39:47;1.90;89.60
48994;DHT22;34804;49.214;12.276;2022-12-07T04:42:14;2.00;89.60
48994;DHT22;34804;49.214;12.276;2022-12-07T04:44:41;1.90;89.30
48994;DHT22;34804;49.214;12.276;2022-12-07T04:47:08;2.00;89.40
48994;DHT22;34804;49.214;12.276;2022-12-07T04:49:34;2.00;89.30
48994;DHT22;34804;49.214;12.276;2022-12-07T04:52:01;1.90;89.20
48994;DHT22;34804;49.214;12.276;2022-12-07T04:54:28;1.90;89.50
48994;DHT22;34804;49.214;12.276;2022-12-07T04:56:55;1.80;89.40
48994;DHT22;34804;49.214;12.276;2022-12-07T04:59:22;1.80;89.30
48994;DHT22;34804;49.214;12.276;2022-12-07T05:01:48;1.60;89.20
48994;DHT22;34804;49.214;12.276;2022-12-07T05:04:16;1.60;89.30
48994;DHT22;34804;49.214;12.276;2022-12-07T05:06:44;1.50;89.40
48994;DHT22;34804;49.214;12.276;2022-12-07T05:09:11;1.40;89.70
48994;DHT22;34804;49.214;12.276;2022-12-07T05:11:37;1.30;89.90
48994;DHT22;34804;49.214;12.276;2022-12-07T05:14:08;1.30;90.30
48994;DHT22;34804;49.214;12.276;2022-12-07T05:16:35;1.30;90.20
48994;DHT22;34804;49.214;12.276;2022-12-07T05:19:03;1.30;90.10
48994;DHT22;34804;49.214;12.276;2022-12-07T05:21:30;1.20;90.20
48994;DHT22;34804;49.214;12.276;2022-12-07T05:23:57;1.10;90.20
48994;DHT22;34804;49.214;12.276;2022-12-07T05:26:24;1.10;90.30
48994;DHT22;34804;49.214;12.276;2022-12-07T05:28:55;1.10;90.00
48994;DHT22;34804;49.214;12.276;2022-12-07T05:31:23;1.10;90.10
48994;DHT22;34804;49.214;12.276;2022-12-07T05:33:50;1.10;90.10
48994;DHT22;34804;49.214;12.276;2022-12-07T05:36:18;1.00;90.20
48994;DHT22;34804;49.214;12.276;2022-12-07T05:38:45;0.90;90.30
48994;DHT22;34804;49.214;12.276;2022-12-07T05:41:17;0.80;90.40
48994;DHT22;34804;49.214;12.276;2022-12-07T05:44:03;0.80;90.60
48994;DHT22;34804;49.214;12.276;2022-12-07T05:46:30;0.80;90.90
48994;DHT22;34804;49.214;12.276;2022-12-07T05:48:57;0.70;91.30
48994;DHT22;34804;49.214;12.276;2022-12-07T05:51:23;0.60;91.30
48994;DHT22;34804;49.214;12.276;2022-12-07T05:53:50;0.50;91.60
48994;DHT22;34804;49.214;12.276;2022-12-07T05:56:17;0.40;91.90
48994;DHT22;34804;49.214;12.276;2022-12-07T05:58:44;0.50;92.30
48994;DHT22;34804;49.214;12.276;2022-12-07T06:01:29;0.60;92.20
48994;DHT22;34804;49.214;12.276;2022-12-07T06:03:56;0.60;92.30
48994;DHT22;34804;49.214;12.276;2022-12-07T06:06:23;0.60;92.40
48994;DHT22;34804;49.214;12.276;2022-12-07T06:08:50;0.70;92.70
48994;DHT22;34804;49.214;12.276;2022-12-07T06:11:17;0.70;92.80
48994;DHT22;34804;49.214;12.276;2022-12-07T06:14:02;0.80;92.80
48994;DHT22;34804;49.214;12.276;2022-12-07T06:16:29;0.80;92.70
48994;DHT22;34804;49.214;12.276;2022-12-07T06:18:56;0.90;92.60
48994;DHT22;34804;49.214;12.276;2022-12-07T06:21:23;0.90;92.70
48994;DHT22;34804;49.214;12.276;2022-12-07T06:23:49;0.90;92.60
48994;DHT22;34804;49.214;12.276;2022-12-07T06:26:16;0.90;92.60
48994;DHT22;34804;49.214;12.276;2022-12-07T06:28:43;0.90;92.50
48994;DHT22;34804;49.214;12.276;2022-12-07T06:31:10;0.90;92.50
48994;DHT22;34804;49.214;12.276;2022-12-07T06:33:42;0.90;92.60
48994;DHT22;34804;49.214;12.276;2022-12-07T06:36:09;1.00;92.70
48994;DHT22;34804;49.214;12.276;2022-12-07T06:38:36;1.00;92.60
48994;DHT22;34804;49.214;12.276;2022-12-07T06:41:03;1.10;92.60
48994;DHT22;34804;49.214;12.276;2022-12-07T06:43:30;1.10;92.50
48994;DHT22;34804;49.214;12.276;2022-12-07T06:45:56;1.10;92.30
48994;DHT22;34804;49.214;12.276;2022-12-07T06:48:23;1.10;92.20
48994;DHT22;34804;49.214;12.276;2022-12-07T06:50:50;1.20;92.10
48994;DHT22;34804;49.214;12.276;2022-12-07T06:53:21;1.20;91.90
48994;DHT22;34804;49.214;12.276;2022-12-07T06:55:48;1.20;91.90
48994;DHT22;34804;49.214;12.276;2022-12-07T06:58:15;1.10;91.80
48994;DHT22;34804;49.214;12.276;2022-12-07T07:00:43;1.20;91.70
48994;DHT22;34804;49.214;12.276;2022-12-07T07:03:11;1.20;91.90
48994;DHT22;34804;49.214;12.276;2022-12-07T07:05:38;1.20;91.60
48994;DHT22;34804;49.214;12.276;2022-12-07T07:08:05;1.20;91.50
48994;DHT22;34804;49.214;12.276;2022-12-07T07:10:49;1.20;91.10
48994;DHT22;34804;49.214;12.276;2022-12-07T07:13:16;1.30;91.00
48994;DHT22;34804;49.214;12.276;2022-12-07T07:15:43;1.30;90.90
48994;DHT22;34804;49.214;12.276;2022-12-07T07:18:09;1.30;90.50
48994;DHT22;34804;49.214;12.276;2022-12-07T07:20:36;1.30;90.60
48994;DHT22;34804;49.214;12.276;2022-12-07T07:23:03;1.30;90.70
48994;DHT22;34804;49.214;12.276;2022-12-07T07:25:31;1.30;90.70
48994;DHT22;34804;49.214;12.276;2022-12-07T07:27:58;1.40;90.80
48994;DHT22;34804;49.214;12.276;2022-12-07T07:30:26;1.40;90.70
48994;DHT22;34804;49.214;12.276;2022-12-07T07:33:01;1.30;90.60
48994;DHT22;34804;49.214;12.276;2022-12-07T07:35:29;1.40;90.60
48994;DHT22;34804;49.214;12.276;2022-12-07T07:37:56;1.40;90.40
48994;DHT22;34804;49.214;12.276;2022-12-07T07:40:24;1.40;90.30
48994;DHT22;34804;49.214;12.276;2022-12-07T07:42:53;1.50;90.30
48994;DHT22;34804;49.214;12.276;2022-12-07T07:45:21;1.50;90.40
48994;DHT22;34804;49.214;12.276;2022-12-07T07:47:49;1.50;90.60
48994;DHT22;34804;49.214;12.276;2022-12-07T07:50:17;1.50;90.50
48994;DHT22;34804;49.214;12.276;2022-12-07T07:52:44;1.40;90.40
48994;DHT22;34804;49.214;12.276;2022-12-07T07:55:11;1.50;90.30
48994;DHT22;34804;49.214;12.276;2022-12-07T07:57:39;1.40;90.50
48994;DHT22;34804;49.214;12.276;2022-12-07T08:00:12;1.40;90.30
48994;DHT22;34804;49.214;12.276;2022-12-07T08:02:40;1.50;90.20
48994;DHT22;34804;49.214;12.276;2022-12-07T08:05:07;1.50;90.20
48994;DHT22;34804;49.214;12.276;2022-12-07T08:07:34;1.50;89.90
48994;DHT22;34804;49.214;12.276;2022-12-07T08:10:01;1.50;89.60
48994;DHT22;34804;49.214;12.276;2022-12-07T08:12:29;1.60;89.30
48994;DHT22;34804;49.214;12.276;2022-12-07T08:14:55;1.60;89.10
48994;DHT22;34804;49.214;12.276;2022-12-07T08:17:22;1.60;89.60
48994;DHT22;34804;49.214;12.276;2022-12-07T08:19:49;1.60;89.50
48994;DHT22;34804;49.214;12.276;2022-12-07T08:22:16;1.60;89.40
48994;DHT22;34804;49.214;12.276;2022-12-07T08:24:42;1.70;89.10
48994;DHT22;34804;49.214;12.276;2022-12-07T08:27:09;1.70;89.30
48994;DHT22;34804;49.214;12.276;2022-12-07T08:29:36;1.70;89.00
48994;DHT22;34804;49.214;12.276;2022-12-07T08:32:03;1.80;88.90
48994;DHT22;34804;49.214;12.276;2022-12-07T08:34:35;1.80;89.10
48994;DHT22;34804;49.214;12.276;2022-12-07T08:37:03;1.80;89.40
48994;DHT22;34804;49.214;12.276;2022-12-07T08:39:30;1.80;89.50
48994;DHT22;34804;49.214;12.276;2022-12-07T08:41:58;1.90;89.40
48994;DHT22;34804;49.214;12.276;2022-12-07T08:44:25;1.90;89.40
48994;DHT22;34804;49.214;12.276;2022-12-07T08:46:59;1.90;88.90
48994;DHT22;34804;49.214;12.276;2022-12-07T08:49:37;1.90;89.20
48994;DHT22;34804;49.214;12.276;2022-12-07T08:52:05;2.00;89.10
48994;DHT22;34804;49.214;12.276;2022-12-07T08:54:35;2.00;88.60
48994;DHT22;34804;49.214;12.276;2022-12-07T08:57:03;2.00;88.70
48994;DHT22;34804;49.214;12.276;2022-12-07T08:59:30;2.00;88.20
48994;DHT22;34804;49.214;12.276;2022-12-07T09:01:58;2.00;87.90
48994;DHT22;34804;49.214;12.276;2022-12-07T09:04:25;2.00;88.10
48994;DHT22;34804;49.214;12.276;2022-12-07T09:06:54;2.00;88.30
48994;DHT22;34804;49.214;12.276;2022-12-07T09:09:21;2.00;88.10
48994;DHT22;34804;49.214;12.276;2022-12-07T09:11:48;2.10;89.00
48994;DHT22;34804;49.214;12.276;2022-12-07T09:14:15;2.20;88.80
48994;DHT22;34804;49.214;12.276;2022-12-07T09:16:42;2.20;88.50
48994;DHT22;34804;49.214;12.276;2022-12-07T09:19:09;2.20;88.00
48994;DHT22;34804;49.214;12.276;2022-12-07T09:21:36;2.20;87.70
48994;DHT22;34804;49.214;12.276;2022-12-07T09:24:03;2.20;88.40
48994;DHT22;34804;49.214;12.276;2022-12-07T09:26:30;2.20;88.30
48994;DHT22;34804;49.214;12.276;2022-12-07T09:28:56;2.30;88.10
48994;DHT22;34804;49.214;12.276;2022-12-07T09:31:23;2.30;87.80
48994;DHT22;34804;49.214;12.276;2022-12-07T09:33:57;2.30;87.70
48994;DHT22;34804;49.214;12.276;2022-12-07T09:36:24;2.30;88.10
48994;DHT22;34804;49.214;12.276;2022-12-07T09:38:52;2.40;87.90
48994;DHT22;34804;49.214;12.276;2022-12-07T09:41:19;2.40;86.90
48994;DHT22;34804;49.214;12.276;2022-12-07T09:43:46;2.50;86.50
48994;DHT22;34804;49.214;12.276;2022-12-07T09:46:15;2.40;86.20
48994;DHT22;34804;49.214;12.276;2022-12-07T09:48:44;2.50;86.20
48994;DHT22;34804;49.214;12.276;2022-12-07T09:51:20;2.60;86.90
48994;DHT22;34804;49.214;12.276;2022-12-07T09:53:52;2.70;86.20
48994;DHT22;34804;49.214;12.276;2022-12-07T09:56:20;2.70;85.70
48994;DHT22;34804;49.214;12.276;2022-12-07T09:58:48;2.80;86.30
48994;DHT22;34804;49.214;12.276;2022-12-07T10:01:21;2.80;86.90
48994;DHT22;34804;49.214;12.276;2022-12-07T10:04:02;2.90;86.00
48994;DHT22;34804;49.214;12.276;2022-12-07T10:06:34;2.90;85.50
48994;DHT22;34804;49.214;12.276;2022-12-07T10:09:07;2.90;86.10
48994;DHT22;34804;49.214;12.276;2022-12-07T10:11:35;2.90;85.30
48994;DHT22;34804;49.214;12.276;2022-12-07T10:14:13;3.00;85.60
48994;DHT22;34804;49.214;12.276;2022-12-07T10:16:41;3.00;85.40
48994;DHT22;34804;49.214;12.276;2022-12-07T10:19:28;3.00;85.90
48994;DHT22;34804;49.214;12.276;2022-12-07T10:22:16;3.00;85.60
48994;DHT22;34804;49.214;12.276;2022-12-07T10:24:46;3.00;85.00
48994;DHT22;34804;49.214;12.276;2022-12-07T10:27:22;3.10;85.80
48994;DHT22;34804;49.214;12.276;2022-12-07T10:29:53;3.10;85.80
48994;DHT22;34804;49.214;12.276;2022-12-07T10:32:34;3.10;86.00
48994;DHT22;34804;49.214;12.276;2022-12-07T10:35:24;3.10;85.60
48994;DHT22;34804;49.214;12.276;2022-12-07T10:37:53;3.10;85.30
48994;DHT22;34804;49.214;12.276;2022-12-07T10:40:35;3.10;84.50
48994;DHT22;34804;49.214;12.276;2022-12-07T10:52:07;3.30;85.80
48994;DHT22;34804;49.214;12.276;2022-12-07T11:00:04;3.40;85.60
48994;DHT22;34804;49.214;12.276;2022-12-07T11:02:58;3.30;86.10
48994;DHT22;34804;49.214;12.276;2022-12-07T11:06:00;3.00;87.00
48994;DHT22;34804;49.214;12.276;2022-12-07T11:11:30;3.10;86.70
48994;DHT22;34804;49.214;12.276;2022-12-07T11:14:37;3.00;86.80
48994;DHT22;34804;49.214;12.276;2022-12-07T11:17:31;3.10;87.00
48994;DHT22;34804;49.214;12.276;2022-12-07T11:33:26;3.10;86.20
48994;DHT22;34804;49.214;12.276;2022-12-07T11:38:55;3.20;86.70
48994;DHT22;34804;49.214;12.276;2022-12-07T11:41:27;3.20;86.50
48994;DHT22;34804;49.214;12.276;2022-12-07T11:49:27;3.30;86.30
48994;DHT22;34804;49.214;12.276;2022-12-07T11:51:59;3.30;86.30
48994;DHT22;34804;49.214;12.276;2022-12-07T11:54:35;3.30;86.60
48994;DHT22;34804;49.214;12.276;2022-12-07T11:57:37;3.40;87.20
48994;DHT22;34804;49.214;12.276;2022-12-07T12:00:13;3.40;86.50
48994;DHT22;34804;49.214;12.276;2022-12-07T12:07:47;3.50;86.80
48994;DHT22;34804;49.214;12.276;2022-12-07T12:10:40;3.50;86.60
48994;DHT22;34804;49.214;12.276;2022-12-07T12:16:21;3.50;86.90
48994;DHT22;34804;49.214;12.276;2022-12-07T12:24:39;3.60;86.40
48994;DHT22;34804;49.214;12.276;2022-12-07T12:27:27;3.60;85.90
48994;DHT22;34804;49.214;12.276;2022-12-07T12:30:03;3.50;86.40
48994;DHT22;34804;49.214;12.276;2022-12-07T12:32:42;3.50;85.80
48994;DHT22;34804;49.214;12.276;2022-12-07T12:35:29;3.50;86.10
48994;DHT22;34804;49.214;12.276;2022-12-07T12:40:43;3.50;86.70
48994;DHT22;34804;49.214;12.276;2022-12-07T12:43:42;3.50;87.00
48994;DHT22;34804;49.214;12.276;2022-12-07T12:46:36;3.60;87.50
48994;DHT22;34804;49.214;12.276;2022-12-07T12:54:37;3.60;87.40
48994;DHT22;34804;49.214;12.276;2022-12-07T12:57:27;3.60;87.70
48994;DHT22;34804;49.214;12.276;2022-12-07T13:04:58;3.50;87.70
48994;DHT22;34804;49.214;12.276;2022-12-07T13:18:22;3.60;87.90
48994;DHT22;34804;49.214;12.276;2022-12-07T13:23:32;3.60;88.50
48994;DHT22;34804;49.214;12.276;2022-12-07T13:28:48;3.50;87.60
48994;DHT22;34804;49.214;12.276;2022-12-07T13:33:55;3.60;88.00
48994;DHT22;34804;49.214;12.276;2022-12-07T13:36:28;3.60;87.70
48994;DHT22;34804;49.214;12.276;2022-12-07T13:38:59;3.50;88.20
48994;DHT22;34804;49.214;12.276;2022-12-07T13:41:28;3.50;87.90
48994;DHT22;34804;49.214;12.276;2022-12-07T13:44:15;3.40;87.80
48994;DHT22;34804;49.214;12.276;2022-12-07T13:49:30;3.40;88.30
48994;DHT22;34804;49.214;12.276;2022-12-07T13:52:14;3.50;88.40
48994;DHT22;34804;49.214;12.276;2022-12-07T13:54:59;3.40;88.10
48994;DHT22;34804;49.214;12.276;2022-12-07T13:57:30;3.50;88.30
48994;DHT22;34804;49.214;12.276;2022-12-07T13:59:58;3.40;88.60
48994;DHT22;34804;49.214;12.276;2022-12-07T14:02:30;3.40;88.60
48994;DHT22;34804;49.214;12.276;2022-12-07T14:05:16;3.40;88.30
48994;DHT22;34804;49.214;12.276;2022-12-07T14:08:04;3.50;88.80
48994;DHT22;34804;49.214;12.276;2022-12-07T14:11:15;3.40;89.00
48994;DHT22;34804;49.214;12.276;2022-12-07T14:15:54;3.50;88.50
48994;DHT22;34804;49.214;12.276;2022-12-07T14:18:40;3.40;88.60
48994;DHT22;34804;49.214;12.276;2022-12-07T14:23:38;3.40;88.70
48994;DHT22;34804;49.214;12.276;2022-12-07T14:26:12;3.40;88.50
48994;DHT22;34804;49.214;12.276;2022-12-07T14:28:41;3.40;88.40
48994;DHT22;34804;49.214;12.276;2022-12-07T14:31:14;3.40;88.90
48994;DHT22;34804;49.214;12.276;2022-12-07T14:33:50;3.30;89.10
48994;DHT22;34804;49.214;12.276;2022-12-07T14:36:17;3.30;88.70
48994;DHT22;34804;49.214;12.276;2022-12-07T14:38:44;3.30;89.00
48994;DHT22;34804;49.214;12.276;2022-12-07T14:41:15;3.30;88.50
48994;DHT22;34804;49.214;12.276;2022-12-07T14:44:11;3.30;88.70
48994;DHT22;34804;49.214;12.276;2022-12-07T14:46:58;3.30;88.70
48994;DHT22;34804;49.214;12.276;2022-12-07T14:49:44;3.30;88.70
48994;DHT22;34804;49.214;12.276;2022-12-07T14:52:17;3.30;89.00
48994;DHT22;34804;49.214;12.276;2022-12-07T14:55:11;3.20;89.10
48994;DHT22;34804;49.214;12.276;2022-12-07T14:57:39;3.20;89.10
48994;DHT22;34804;49.214;12.276;2022-12-07T15:00:06;3.10;88.90
48994;DHT22;34804;49.214;12.276;2022-12-07T15:02:33;3.10;89.00
48994;DHT22;34804;49.214;12.276;2022-12-07T15:05:00;3.10;89.00
48994;DHT22;34804;49.214;12.276;2022-12-07T15:07:29;3.10;89.10
48994;DHT22;34804;49.214;12.276;2022-12-07T15:09:55;3.00;89.20
48994;DHT22;34804;49.214;12.276;2022-12-07T15:12:22;3.00;89.30
48994;DHT22;34804;49.214;12.276;2022-12-07T15:14:51;2.90;89.40
48994;DHT22;34804;49.214;12.276;2022-12-07T15:17:18;2.90;89.50
48994;DHT22;34804;49.214;12.276;2022-12-07T15:19:57;2.90;89.30
48994;DHT22;34804;49.214;12.276;2022-12-07T15:22:24;2.90;89.50
48994;DHT22;34804;49.214;12.276;2022-12-07T15:24:51;2.80;89.70
48994;DHT22;34804;49.214;12.276;2022-12-07T15:27:17;2.80;89.60
48994;DHT22;34804;49.214;12.276;2022-12-07T15:29:44;2.80;89.70
48994;DHT22;34804;49.214;12.276;2022-12-07T15:32:11;2.80;89.70
48994;DHT22;34804;49.214;12.276;2022-12-07T15:34:38;2.80;89.70
48994;DHT22;34804;49.214;12.276;2022-12-07T15:37:07;2.80;89.70
48994;DHT22;34804;49.214;12.276;2022-12-07T15:39:35;2.80;89.70
48994;DHT22;34804;49.214;12.276;2022-12-07T15:42:02;2.80;89.80
48994;DHT22;34804;49.214;12.276;2022-12-07T15:44:29;2.80;90.10
48994;DHT22;34804;49.214;12.276;2022-12-07T15:47:15;2.80;90.10
48994;DHT22;34804;49.214;12.276;2022-12-07T15:49:42;2.80;90.00
48994;DHT22;34804;49.214;12.276;2022-12-07T15:52:08;2.80;90.10
48994;DHT22;34804;49.214;12.276;2022-12-07T15:54:35;2.80;90.20
48994;DHT22;34804;49.214;12.276;2022-12-07T15:57:02;2.90;90.30
48994;DHT22;34804;49.214;12.276;2022-12-07T15:59:29;2.80;90.20
48994;DHT22;34804;49.214;12.276;2022-12-07T16:01:56;2.80;90.10
48994;DHT22;34804;49.214;12.276;2022-12-07T16:04:23;2.80;90.20
48994;DHT22;34804;49.214;12.276;2022-12-07T16:06:50;2.80;89.70
48994;DHT22;34804;49.214;12.276;2022-12-07T16:09:18;2.80;89.80
48994;DHT22;34804;49.214;12.276;2022-12-07T16:11:46;2.80;89.50
48994;DHT22;34804;49.214;12.276;2022-12-07T16:14:13;2.80;89.80
48994;DHT22;34804;49.214;12.276;2022-12-07T16:16:39;2.80;89.90
48994;DHT22;34804;49.214;12.276;2022-12-07T16:19:07;2.80;90.10
48994;DHT22;34804;49.214;12.276;2022-12-07T16:21:35;2.80;90.70
48994;DHT22;34804;49.214;12.276;2022-12-07T16:24:02;2.80;90.10
48994;DHT22;34804;49.214;12.276;2022-12-07T16:26:29;2.80;90.40
48994;DHT22;34804;49.214;12.276;2022-12-07T16:28:57;2.70;90.80
48994;DHT22;34804;49.214;12.276;2022-12-07T16:31:26;2.70;90.90
48994;DHT22;34804;49.214;12.276;2022-12-07T16:33:55;2.60;90.80
48994;DHT22;34804;49.214;12.276;2022-12-07T16:36:23;2.60;91.20
48994;DHT22;34804;49.214;12.276;2022-12-07T16:39:11;2.60;91.50
48994;DHT22;34804;49.214;12.276;2022-12-07T16:41:38;2.50;91.30
48994;DHT22;34804;49.214;12.276;2022-12-07T16:44:07;2.40;91.30
48994;DHT22;34804;49.214;12.276;2022-12-07T16:46:35;2.40;91.30
48994;DHT22;34804;49.214;12.276;2022-12-07T16:49:03;2.30;91.70
48994;DHT22;34804;49.214;12.276;2022-12-07T16:51:31;2.30;91.80
48994;DHT22;34804;49.214;12.276;2022-12-07T16:53:58;2.30;91.80
48994;DHT22;34804;49.214;12.276;2022-12-07T16:56:25;2.20;91.90
48994;DHT22;34804;49.214;12.276;2022-12-07T16:58:53;2.20;91.90
48994;DHT22;34804;49.214;12.276;2022-12-07T17:01:22;2.20;92.00
48994;DHT22;34804;49.214;12.276;2022-12-07T17:03:50;2.10;91.80
48994;DHT22;34804;49.214;12.276;2022-12-07T17:06:22;2.10;91.90
48994;DHT22;34804;49.214;12.276;2022-12-07T17:08:50;2.10;92.00
48994;DHT22;34804;49.214;12.276;2022-12-07T17:11:20;2.10;92.10
48994;DHT22;34804;49.214;12.276;2022-12-07T17:13:48;2.10;92.10
48994;DHT22;34804;49.214;12.276;2022-12-07T17:16:34;2.10;92.20
48994;DHT22;34804;49.214;12.276;2022-12-07T17:19:10;2.10;92.00
48994;DHT22;34804;49.214;12.276;2022-12-07T17:21:39;2.00;92.30
48994;DHT22;34804;49.214;12.276;2022-12-07T17:24:09;2.10;92.30
48994;DHT22;34804;49.214;12.276;2022-12-07T17:26:37;2.10;92.30
48994;DHT22;34804;49.214;12.276;2022-12-07T17:29:05;2.10;92.40
48994;DHT22;34804;49.214;12.276;2022-12-07T17:31:34;2.10;92.40
48994;DHT22;34804;49.214;12.276;2022-12-07T17:34:00;2.20;92.40
48994;DHT22;34804;49.214;12.276;2022-12-07T17:36:30;2.30;92.20
48994;DHT22;34804;49.214;12.276;2022-12-07T17:38:57;2.30;92.10
48994;DHT22;34804;49.214;12.276;2022-12-07T17:41:26;2.30;91.80
48994;DHT22;34804;49.214;12.276;2022-12-07T17:44:14;2.40;91.30
48994;DHT22;34804;49.214;12.276;2022-12-07T17:46:41;2.40;90.90
48994;DHT22;34804;49.214;12.276;2022-12-07T17:49:09;2.40;90.90
48994;DHT22;34804;49.214;12.276;2022-12-07T17:51:35;2.40;90.80
48994;DHT22;34804;49.214;12.276;2022-12-07T17:54:21;2.40;90.60
48994;DHT22;34804;49.214;12.276;2022-12-07T17:56:49;2.40;90.70
48994;DHT22;34804;49.214;12.276;2022-12-07T17:59:16;2.40;90.70
48994;DHT22;34804;49.214;12.276;2022-12-07T18:01:44;2.40;90.60